sensor_id;sensor_type;location;lat;lon;timestamp;P1;durP1;ratioP1;P2;durP2;ratioP2
13171;SDS011;6651;53.200;10.432;2023-04-24T00:02:12;4.95;;;4.05;;
13171;SDS011;6651;53.200;10.432;2023-04-24T00:04:38;3.75;;;3.45;;
13171;SDS011;6651;53.200;10.432;2023-04-24T00:07:10;5.07;;;4.28;;
13171;SDS011;6651;53.200;10.432;2023-04-24T00:09:36;5.00;;;3.95;;
13171;SDS011;6651;53.200;10.432;2023-04-24T00:12:02;4.55;;;3.80;;
13171;SDS011;6651;53.200;10.432;2023-04-24T00:14:31;4.65;;;4.10;;
13171;SDS011;6651;53.200;10.432;2023-04-24T00:16:57;5.28;;;4.22;;
13171;SDS011;6651;53.200;10.432;2023-04-24T00:19:23;4.32;;;3.80;;
13171;SDS011;6651;53.200;10.432;2023-04-24T00:21:49;8.20;;;4.20;;
13171;SDS011;6651;53.200;10.432;2023-04-24T00:24:16;4.43;;;4.03;;
13171;SDS011;6651;53.200;10.432;2023-04-24T00:26:43;4.43;;;3.90;;
13171;SDS011;6651;53.200;10.432;2023-04-24T00:29:09;4.32;;;3.92;;
13171;SDS011;6651;53.200;10.432;2023-04-24T00:31:35;5.75;;;3.90;;
13171;SDS011;6651;53.200;10.432;2023-04-24T00:34:01;5.38;;;3.90;;
13171;SDS011;6651;53.200;10.432;2023-04-24T00:36:27;4.28;;;3.88;;
13171;SDS011;6651;53.200;10.432;2023-04-24T00:38:53;4.63;;;3.97;;
13171;SDS011;6651;53.200;10.432;2023-04-24T00:41:20;4.68;;;3.45;;
13171;SDS011;6651;53.200;10.432;2023-04-24T00:43:46;4.88;;;3.53;;
13171;SDS011;6651;53.200;10.432;2023-04-24T00:46:12;5.78;;;3.90;;
13171;SDS011;6651;53.200;10.432;2023-04-24T00:48:39;4.15;;;3.75;;
13171;SDS011;6651;53.200;10.432;2023-04-24T00:51:05;4.43;;;3.70;;
13171;SDS011;6651;53.200;10.432;2023-04-24T00:53:31;5.10;;;3.90;;
13171;SDS011;6651;53.200;10.432;2023-04-24T00:55:57;4.85;;;3.88;;
13171;SDS011;6651;53.200;10.432;2023-04-24T00:58:23;4.80;;;3.90;;
13171;SDS011;6651;53.200;10.432;2023-04-24T01:00:50;4.20;;;3.80;;
13171;SDS011;6651;53.200;10.432;2023-04-24T01:03:18;5.28;;;3.72;;
13171;SDS011;6651;53.200;10.432;2023-04-24T01:05:44;3.88;;;3.42;;
13171;SDS011;6651;53.200;10.432;2023-04-24T01:08:10;4.20;;;3.80;;
13171;SDS011;6651;53.200;10.432;2023-04-24T01:10:36;4.40;;;3.38;;
13171;SDS011;6651;53.200;10.432;2023-04-24T01:13:04;4.55;;;3.85;;
13171;SDS011;6651;53.200;10.432;2023-04-24T01:15:30;3.78;;;3.38;;
13171;SDS011;6651;53.200;10.432;2023-04-24T01:17:56;3.85;;;3.45;;
13171;SDS011;6651;53.200;10.432;2023-04-24T01:20:22;4.20;;;3.58;;
13171;SDS011;6651;53.200;10.432;2023-04-24T01:22:51;3.80;;;3.42;;
13171;SDS011;6651;53.200;10.432;2023-04-24T01:25:17;3.80;;;3.25;;
13171;SDS011;6651;53.200;10.432;2023-04-24T01:27:44;3.40;;;3.10;;
13171;SDS011;6651;53.200;10.432;2023-04-24T01:30:10;3.15;;;2.85;;
13171;SDS011;6651;53.200;10.432;2023-04-24T01:32:37;3.60;;;3.13;;
13171;SDS011;6651;53.200;10.432;2023-04-24T01:35:03;4.30;;;3.20;;
13171;SDS011;6651;53.200;10.432;2023-04-24T01:37:29;3.72;;;2.88;;
13171;SDS011;6651;53.200;10.432;2023-04-24T01:39:57;3.67;;;3.05;;
13171;SDS011;6651;53.200;10.432;2023-04-24T01:42:23;4.20;;;2.80;;
13171;SDS011;6651;53.200;10.432;2023-04-24T01:44:49;3.03;;;2.63;;
13171;SDS011;6651;53.200;10.432;2023-04-24T01:47:16;3.03;;;2.63;;
13171;SDS011;6651;53.200;10.432;2023-04-24T01:49:42;3.00;;;2.70;;
13171;SDS011;6651;53.200;10.432;2023-04-24T01:52:08;2.75;;;2.50;;
13171;SDS011;6651;53.200;10.432;2023-04-24T01:54:34;3.80;;;2.53;;
13171;SDS011;6651;53.200;10.432;2023-04-24T01:57:00;2.58;;;2.38;;
13171;SDS011;6651;53.200;10.432;2023-04-24T01:59:27;3.13;;;2.25;;
13171;SDS011;6651;53.200;10.432;2023-04-24T02:01:54;2.15;;;1.90;;
13171;SDS011;6651;53.200;10.432;2023-04-24T02:04:20;2.17;;;1.98;;
13171;SDS011;6651;53.200;10.432;2023-04-24T02:06:46;2.33;;;2.13;;
13171;SDS011;6651;53.200;10.432;2023-04-24T02:09:12;2.20;;;2.00;;
13171;SDS011;6651;53.200;10.432;2023-04-24T02:11:39;2.53;;;2.30;;
13171;SDS011;6651;53.200;10.432;2023-04-24T02:14:05;2.47;;;2.28;;
13171;SDS011;6651;53.200;10.432;2023-04-24T02:16:31;2.20;;;2.00;;
13171;SDS011;6651;53.200;10.432;2023-04-24T02:18:57;2.40;;;2.20;;
13171;SDS011;6651;53.200;10.432;2023-04-24T02:21:24;3.72;;;2.22;;
13171;SDS011;6651;53.200;10.432;2023-04-24T02:23:50;2.70;;;2.25;;
13171;SDS011;6651;53.200;10.432;2023-04-24T02:26:16;2.05;;;1.95;;
13171;SDS011;6651;53.200;10.432;2023-04-24T02:28:43;2.25;;;2.03;;
13171;SDS011;6651;53.200;10.432;2023-04-24T02:31:09;2.10;;;1.90;;
13171;SDS011;6651;53.200;10.432;2023-04-24T02:33:35;1.98;;;1.80;;
13171;SDS011;6651;53.200;10.432;2023-04-24T02:36:01;2.35;;;1.92;;
13171;SDS011;6651;53.200;10.432;2023-04-24T02:38:28;2.15;;;1.92;;
13171;SDS011;6651;53.200;10.432;2023-04-24T02:40:54;2.00;;;1.88;;
13171;SDS011;6651;53.200;10.432;2023-04-24T02:43:20;2.38;;;2.13;;
13171;SDS011;6651;53.200;10.432;2023-04-24T02:45:46;1.67;;;1.58;;
13171;SDS011;6651;53.200;10.432;2023-04-24T02:48:13;2.47;;;1.90;;
13171;SDS011;6651;53.200;10.432;2023-04-24T02:50:39;2.15;;;1.90;;
13171;SDS011;6651;53.200;10.432;2023-04-24T02:53:05;1.80;;;1.70;;
13171;SDS011;6651;53.200;10.432;2023-04-24T02:55:31;2.03;;;1.88;;
13171;SDS011;6651;53.200;10.432;2023-04-24T02:57:57;2.85;;;2.10;;
13171;SDS011;6651;53.200;10.432;2023-04-24T03:00:23;2.08;;;1.88;;
13171;SDS011;6651;53.200;10.432;2023-04-24T03:02:49;1.75;;;1.65;;
13171;SDS011;6651;53.200;10.432;2023-04-24T03:05:15;2.00;;;1.80;;
13171;SDS011;6651;53.200;10.432;2023-04-24T03:07:41;2.53;;;1.60;;
13171;SDS011;6651;53.200;10.432;2023-04-24T03:10:07;1.92;;;1.63;;
13171;SDS011;6651;53.200;10.432;2023-04-24T03:12:33;1.52;;;1.42;;
13171;SDS011;6651;53.200;10.432;2023-04-24T03:15:00;1.88;;;1.60;;
13171;SDS011;6651;53.200;10.432;2023-04-24T03:17:26;2.25;;;1.55;;
13171;SDS011;6651;53.200;10.432;2023-04-24T03:19:52;1.42;;;1.38;;
13171;SDS011;6651;53.200;10.432;2023-04-24T03:22:18;1.60;;;1.50;;
13171;SDS011;6651;53.200;10.432;2023-04-24T03:24:44;1.40;;;1.30;;
13171;SDS011;6651;53.200;10.432;2023-04-24T03:27:10;1.27;;;1.17;;
13171;SDS011;6651;53.200;10.432;2023-04-24T03:29:36;1.95;;;1.58;;
13171;SDS011;6651;53.200;10.432;2023-04-24T03:32:02;1.45;;;1.35;;
13171;SDS011;6651;53.200;10.432;2023-04-24T03:34:28;1.45;;;1.40;;
13171;SDS011;6651;53.200;10.432;2023-04-24T03:36:54;1.65;;;1.40;;
13171;SDS011;6651;53.200;10.432;2023-04-24T03:39:20;1.25;;;1.25;;
13171;SDS011;6651;53.200;10.432;2023-04-24T03:41:46;1.52;;;1.38;;
13171;SDS011;6651;53.200;10.432;2023-04-24T03:44:12;1.75;;;1.65;;
13171;SDS011;6651;53.200;10.432;2023-04-24T03:46:38;1.52;;;1.45;;
13171;SDS011;6651;53.200;10.432;2023-04-24T03:49:04;1.33;;;1.33;;
13171;SDS011;6651;53.200;10.432;2023-04-24T03:51:30;4.10;;;1.45;;
13171;SDS011;6651;53.200;10.432;2023-04-24T03:53:57;1.42;;;1.35;;
13171;SDS011;6651;53.200;10.432;2023-04-24T03:56:23;1.40;;;1.40;;
13171;SDS011;6651;53.200;10.432;2023-04-24T03:58:48;1.70;;;1.60;;
13171;SDS011;6651;53.200;10.432;2023-04-24T04:01:14;1.30;;;1.30;;
13171;SDS011;6651;53.200;10.432;2023-04-24T04:03:41;1.30;;;1.30;;
13171;SDS011;6651;53.200;10.432;2023-04-24T04:06:07;1.48;;;1.38;;
13171;SDS011;6651;53.200;10.432;2023-04-24T04:08:33;1.35;;;1.30;;
13171;SDS011;6651;53.200;10.432;2023-04-24T04:10:59;1.85;;;1.23;;
13171;SDS011;6651;53.200;10.432;2023-04-24T04:13:25;2.83;;;1.40;;
13171;SDS011;6651;53.200;10.432;2023-04-24T04:15:51;1.20;;;1.20;;
13171;SDS011;6651;53.200;10.432;2023-04-24T04:18:17;1.35;;;1.25;;
13171;SDS011;6651;53.200;10.432;2023-04-24T04:20:43;1.42;;;1.33;;
13171;SDS011;6651;53.200;10.432;2023-04-24T04:23:09;1.83;;;1.40;;
13171;SDS011;6651;53.200;10.432;2023-04-24T04:25:35;2.20;;;1.33;;
13171;SDS011;6651;53.200;10.432;2023-04-24T04:28:01;1.15;;;1.05;;
13171;SDS011;6651;53.200;10.432;2023-04-24T04:30:27;1.60;;;1.17;;
13171;SDS011;6651;53.200;10.432;2023-04-24T04:32:57;1.27;;;1.17;;
13171;SDS011;6651;53.200;10.432;2023-04-24T04:35:23;2.97;;;1.20;;
13171;SDS011;6651;53.200;10.432;2023-04-24T04:37:49;1.27;;;1.25;;
13171;SDS011;6651;53.200;10.432;2023-04-24T04:40:16;1.20;;;1.10;;
13171;SDS011;6651;53.200;10.432;2023-04-24T04:42:42;1.30;;;1.20;;
13171;SDS011;6651;53.200;10.432;2023-04-24T04:45:11;1.33;;;1.23;;
13171;SDS011;6651;53.200;10.432;2023-04-24T04:47:37;1.65;;;1.30;;
13171;SDS011;6651;53.200;10.432;2023-04-24T04:50:03;1.20;;;1.20;;
13171;SDS011;6651;53.200;10.432;2023-04-24T04:52:30;1.17;;;1.17;;
13171;SDS011;6651;53.200;10.432;2023-04-24T04:54:56;1.20;;;1.13;;
13171;SDS011;6651;53.200;10.432;2023-04-24T04:57:22;1.35;;;1.30;;
13171;SDS011;6651;53.200;10.432;2023-04-24T04:59:48;1.50;;;1.40;;
13171;SDS011;6651;53.200;10.432;2023-04-24T05:02:14;1.38;;;1.27;;
13171;SDS011;6651;53.200;10.432;2023-04-24T05:04:40;1.40;;;1.30;;
13171;SDS011;6651;53.200;10.432;2023-04-24T05:07:06;1.40;;;1.30;;
13171;SDS011;6651;53.200;10.432;2023-04-24T05:09:32;1.20;;;1.20;;
13171;SDS011;6651;53.200;10.432;2023-04-24T05:11:58;1.60;;;1.45;;
13171;SDS011;6651;53.200;10.432;2023-04-24T05:14:25;1.60;;;1.50;;
13171;SDS011;6651;53.200;10.432;2023-04-24T05:16:51;1.20;;;1.17;;
13171;SDS011;6651;53.200;10.432;2023-04-24T05:19:17;1.40;;;1.30;;
13171;SDS011;6651;53.200;10.432;2023-04-24T05:21:43;1.67;;;1.50;;
13171;SDS011;6651;53.200;10.432;2023-04-24T05:24:09;1.77;;;1.63;;
13171;SDS011;6651;53.200;10.432;2023-04-24T05:26:35;3.10;;;1.45;;
13171;SDS011;6651;53.200;10.432;2023-04-24T05:29:01;1.40;;;1.30;;
13171;SDS011;6651;53.200;10.432;2023-04-24T05:31:28;1.48;;;1.38;;
13171;SDS011;6651;53.200;10.432;2023-04-24T05:33:54;1.98;;;1.60;;
13171;SDS011;6651;53.200;10.432;2023-04-24T05:36:20;1.50;;;1.50;;
13171;SDS011;6651;53.200;10.432;2023-04-24T05:38:46;3.00;;;1.65;;
13171;SDS011;6651;53.200;10.432;2023-04-24T05:41:12;1.35;;;1.35;;
13171;SDS011;6651;53.200;10.432;2023-04-24T05:43:38;1.60;;;1.50;;
13171;SDS011;6651;53.200;10.432;2023-04-24T05:46:04;1.70;;;1.60;;
13171;SDS011;6651;53.200;10.432;2023-04-24T05:48:30;1.60;;;1.50;;
13171;SDS011;6651;53.200;10.432;2023-04-24T05:50:56;1.73;;;1.35;;
13171;SDS011;6651;53.200;10.432;2023-04-24T05:53:22;1.65;;;1.50;;
13171;SDS011;6651;53.200;10.432;2023-04-24T05:55:48;1.50;;;1.40;;
13171;SDS011;6651;53.200;10.432;2023-04-24T05:58:14;2.78;;;1.55;;
13171;SDS011;6651;53.200;10.432;2023-04-24T06:00:40;2.05;;;1.30;;
13171;SDS011;6651;53.200;10.432;2023-04-24T06:03:08;2.17;;;1.45;;
13171;SDS011;6651;53.200;10.432;2023-04-24T06:05:34;2.20;;;1.30;;
13171;SDS011;6651;53.200;10.432;2023-04-24T06:08:00;2.38;;;1.50;;
13171;SDS011;6651;53.200;10.432;2023-04-24T06:10:26;1.50;;;1.40;;
13171;SDS011;6651;53.200;10.432;2023-04-24T06:12:52;1.60;;;1.27;;
13171;SDS011;6651;53.200;10.432;2023-04-24T06:15:21;1.73;;;1.38;;
13171;SDS011;6651;53.200;10.432;2023-04-24T06:17:47;2.70;;;1.42;;
13171;SDS011;6651;53.200;10.432;2023-04-24T06:20:13;2.05;;;1.50;;
13171;SDS011;6651;53.200;10.432;2023-04-24T06:22:39;1.20;;;1.20;;
13171;SDS011;6651;53.200;10.432;2023-04-24T06:25:05;1.25;;;1.23;;
13171;SDS011;6651;53.200;10.432;2023-04-24T06:27:32;1.30;;;1.30;;
13171;SDS011;6651;53.200;10.432;2023-04-24T06:29:58;1.38;;;1.27;;
13171;SDS011;6651;53.200;10.432;2023-04-24T06:32:24;1.58;;;1.42;;
13171;SDS011;6651;53.200;10.432;2023-04-24T06:34:51;1.10;;;1.10;;
13171;SDS011;6651;53.200;10.432;2023-04-24T06:37:18;1.60;;;1.50;;
13171;SDS011;6651;53.200;10.432;2023-04-24T06:39:44;3.53;;;1.60;;
13171;SDS011;6651;53.200;10.432;2023-04-24T06:42:10;1.77;;;1.38;;
13171;SDS011;6651;53.200;10.432;2023-04-24T06:44:36;3.25;;;1.83;;
13171;SDS011;6651;53.200;10.432;2023-04-24T06:47:06;1.83;;;1.63;;
13171;SDS011;6651;53.200;10.432;2023-04-24T06:49:33;2.30;;;1.42;;
13171;SDS011;6651;53.200;10.432;2023-04-24T06:51:59;1.92;;;1.20;;
13171;SDS011;6651;53.200;10.432;2023-04-24T06:54:25;3.35;;;1.50;;
13171;SDS011;6651;53.200;10.432;2023-04-24T06:56:51;1.38;;;1.20;;
13171;SDS011;6651;53.200;10.432;2023-04-24T06:59:17;1.42;;;1.33;;
13171;SDS011;6651;53.200;10.432;2023-04-24T07:01:43;1.50;;;1.10;;
13171;SDS011;6651;53.200;10.432;2023-04-24T07:04:10;2.67;;;1.15;;
13171;SDS011;6651;53.200;10.432;2023-04-24T07:06:37;1.73;;;1.33;;
13171;SDS011;6651;53.200;10.432;2023-04-24T07:09:04;2.08;;;1.30;;
13171;SDS011;6651;53.200;10.432;2023-04-24T07:11:30;1.30;;;1.20;;
13171;SDS011;6651;53.200;10.432;2023-04-24T07:13:56;1.48;;;1.20;;
13171;SDS011;6651;53.200;10.432;2023-04-24T07:16:22;1.20;;;1.20;;
13171;SDS011;6651;53.200;10.432;2023-04-24T07:18:48;1.30;;;1.20;;
13171;SDS011;6651;53.200;10.432;2023-04-24T07:21:14;0.90;;;0.90;;
13171;SDS011;6651;53.200;10.432;2023-04-24T07:23:40;1.20;;;1.10;;
13171;SDS011;6651;53.200;10.432;2023-04-24T07:26:07;1.15;;;1.05;;
13171;SDS011;6651;53.200;10.432;2023-04-24T07:28:33;1.42;;;1.27;;
13171;SDS011;6651;53.200;10.432;2023-04-24T07:30:59;1.35;;;1.15;;
13171;SDS011;6651;53.200;10.432;2023-04-24T07:33:25;1.42;;;1.33;;
13171;SDS011;6651;53.200;10.432;2023-04-24T07:35:51;1.17;;;1.13;;
13171;SDS011;6651;53.200;10.432;2023-04-24T07:38:18;1.98;;;1.10;;
13171;SDS011;6651;53.200;10.432;2023-04-24T07:40:47;2.13;;;1.38;;
13171;SDS011;6651;53.200;10.432;2023-04-24T07:43:13;1.50;;;1.40;;
13171;SDS011;6651;53.200;10.432;2023-04-24T07:45:39;1.42;;;1.33;;
13171;SDS011;6651;53.200;10.432;2023-04-24T07:48:05;1.73;;;1.38;;
13171;SDS011;6651;53.200;10.432;2023-04-24T07:50:33;1.60;;;1.25;;
13171;SDS011;6651;53.200;10.432;2023-04-24T07:53:01;1.45;;;1.40;;
13171;SDS011;6651;53.200;10.432;2023-04-24T07:55:27;1.40;;;1.30;;
13171;SDS011;6651;53.200;10.432;2023-04-24T07:57:53;1.60;;;1.50;;
13171;SDS011;6651;53.200;10.432;2023-04-24T08:00:19;1.67;;;1.58;;
13171;SDS011;6651;53.200;10.432;2023-04-24T08:02:45;2.00;;;1.35;;
13171;SDS011;6651;53.200;10.432;2023-04-24T08:05:11;1.80;;;1.70;;
13171;SDS011;6651;53.200;10.432;2023-04-24T08:07:37;2.53;;;1.88;;
13171;SDS011;6651;53.200;10.432;2023-04-24T08:10:04;1.90;;;1.80;;
13171;SDS011;6651;53.200;10.432;2023-04-24T08:12:30;1.95;;;1.70;;
13171;SDS011;6651;53.200;10.432;2023-04-24T08:14:56;2.00;;;1.70;;
13171;SDS011;6651;53.200;10.432;2023-04-24T08:17:22;2.25;;;1.70;;
13171;SDS011;6651;53.200;10.432;2023-04-24T08:19:48;1.58;;;1.48;;
13171;SDS011;6651;53.200;10.432;2023-04-24T08:22:16;3.83;;;1.80;;
13171;SDS011;6651;53.200;10.432;2023-04-24T08:24:42;2.47;;;1.60;;
13171;SDS011;6651;53.200;10.432;2023-04-24T08:27:08;2.08;;;1.80;;
13171;SDS011;6651;53.200;10.432;2023-04-24T08:29:35;1.80;;;1.70;;
13171;SDS011;6651;53.200;10.432;2023-04-24T08:32:01;1.95;;;1.85;;
13171;SDS011;6651;53.200;10.432;2023-04-24T08:34:27;2.25;;;1.98;;
13171;SDS011;6651;53.200;10.432;2023-04-24T08:36:53;2.00;;;1.90;;
13171;SDS011;6651;53.200;10.432;2023-04-24T08:39:19;2.70;;;2.33;;
13171;SDS011;6651;53.200;10.432;2023-04-24T08:41:45;2.60;;;2.35;;
13171;SDS011;6651;53.200;10.432;2023-04-24T08:44:14;2.25;;;1.90;;
13171;SDS011;6651;53.200;10.432;2023-04-24T08:46:42;2.33;;;2.13;;
13171;SDS011;6651;53.200;10.432;2023-04-24T08:49:10;2.85;;;2.50;;
13171;SDS011;6651;53.200;10.432;2023-04-24T08:51:37;2.90;;;2.60;;
13171;SDS011;6651;53.200;10.432;2023-04-24T08:54:04;3.75;;;2.67;;
13171;SDS011;6651;53.200;10.432;2023-04-24T08:56:30;3.85;;;2.65;;
13171;SDS011;6651;53.200;10.432;2023-04-24T08:58:58;3.20;;;2.78;;
13171;SDS011;6651;53.200;10.432;2023-04-24T09:01:24;4.55;;;2.97;;
13171;SDS011;6651;53.200;10.432;2023-04-24T09:03:51;2.85;;;2.60;;
13171;SDS011;6651;53.200;10.432;2023-04-24T09:06:17;3.63;;;2.70;;
13171;SDS011;6651;53.200;10.432;2023-04-24T09:08:43;3.10;;;2.70;;
13171;SDS011;6651;53.200;10.432;2023-04-24T09:11:10;3.17;;;2.88;;
13171;SDS011;6651;53.200;10.432;2023-04-24T09:13:37;4.25;;;3.42;;
13171;SDS011;6651;53.200;10.432;2023-04-24T09:16:03;4.70;;;3.42;;
13171;SDS011;6651;53.200;10.432;2023-04-24T09:18:29;3.40;;;3.10;;
13171;SDS011;6651;53.200;10.432;2023-04-24T09:21:00;3.40;;;3.10;;
13171;SDS011;6651;53.200;10.432;2023-04-24T09:23:27;5.00;;;3.50;;
13171;SDS011;6651;53.200;10.432;2023-04-24T09:25:56;4.10;;;3.70;;
13171;SDS011;6651;53.200;10.432;2023-04-24T09:28:26;4.93;;;3.80;;
13171;SDS011;6651;53.200;10.432;2023-04-24T09:31:02;5.60;;;4.07;;
13171;SDS011;6651;53.200;10.432;2023-04-24T09:33:28;4.68;;;4.00;;
13171;SDS011;6651;53.200;10.432;2023-04-24T09:35:54;4.50;;;3.72;;
13171;SDS011;6651;53.200;10.432;2023-04-24T09:38:30;4.13;;;3.72;;
13171;SDS011;6651;53.200;10.432;2023-04-24T09:40:58;5.90;;;4.43;;
13171;SDS011;6651;53.200;10.432;2023-04-24T09:43:26;4.85;;;4.22;;
13171;SDS011;6651;53.200;10.432;2023-04-24T09:45:53;4.47;;;3.88;;
13171;SDS011;6651;53.200;10.432;2023-04-24T09:48:29;5.38;;;3.70;;
13171;SDS011;6651;53.200;10.432;2023-04-24T09:50:56;4.63;;;4.00;;
13171;SDS011;6651;53.200;10.432;2023-04-24T09:53:25;5.35;;;4.20;;
13171;SDS011;6651;53.200;10.432;2023-04-24T09:55:51;4.82;;;4.05;;
13171;SDS011;6651;53.200;10.432;2023-04-24T09:58:18;5.70;;;3.90;;
13171;SDS011;6651;53.200;10.432;2023-04-24T10:00:44;5.90;;;4.20;;
13171;SDS011;6651;53.200;10.432;2023-04-24T10:03:11;5.50;;;3.97;;
13171;SDS011;6651;53.200;10.432;2023-04-24T10:05:37;4.65;;;4.15;;
13171;SDS011;6651;53.200;10.432;2023-04-24T10:08:08;6.63;;;4.97;;
13171;SDS011;6651;53.200;10.432;2023-04-24T10:10:35;5.45;;;4.65;;
13171;SDS011;6651;53.200;10.432;2023-04-24T10:13:03;7.03;;;4.63;;
13171;SDS011;6651;53.200;10.432;2023-04-24T10:15:29;5.47;;;4.63;;
13171;SDS011;6651;53.200;10.432;2023-04-24T10:17:57;5.55;;;4.40;;
13171;SDS011;6651;53.200;10.432;2023-04-24T10:20:25;5.93;;;4.95;;
13171;SDS011;6651;53.200;10.432;2023-04-24T10:22:53;6.00;;;4.40;;
13171;SDS011;6651;53.200;10.432;2023-04-24T10:25:19;5.63;;;5.05;;
13171;SDS011;6651;53.200;10.432;2023-04-24T10:27:46;5.97;;;5.15;;
13171;SDS011;6651;53.200;10.432;2023-04-24T10:30:12;7.60;;;5.13;;
13171;SDS011;6651;53.200;10.432;2023-04-24T10:32:39;6.30;;;5.40;;
13171;SDS011;6651;53.200;10.432;2023-04-24T10:35:08;5.57;;;4.75;;
13171;SDS011;6651;53.200;10.432;2023-04-24T10:37:36;6.43;;;5.00;;
13171;SDS011;6651;53.200;10.432;2023-04-24T10:40:02;6.95;;;4.80;;
13171;SDS011;6651;53.200;10.432;2023-04-24T10:42:29;5.78;;;4.63;;
13171;SDS011;6651;53.200;10.432;2023-04-24T10:44:55;7.13;;;4.75;;
13171;SDS011;6651;53.200;10.432;2023-04-24T10:47:22;5.85;;;4.60;;
13171;SDS011;6651;53.200;10.432;2023-04-24T10:49:50;7.07;;;5.00;;
13171;SDS011;6651;53.200;10.432;2023-04-24T10:52:16;7.25;;;4.57;;
13171;SDS011;6651;53.200;10.432;2023-04-24T10:54:46;5.85;;;4.75;;
13171;SDS011;6651;53.200;10.432;2023-04-24T10:59:45;5.75;;;4.65;;
13171;SDS011;6651;53.200;10.432;2023-04-24T11:02:15;5.07;;;4.28;;
13171;SDS011;6651;53.200;10.432;2023-04-24T11:04:41;5.78;;;4.70;;
13171;SDS011;6651;53.200;10.432;2023-04-24T11:07:08;4.40;;;4.00;;
13171;SDS011;6651;53.200;10.432;2023-04-24T11:09:35;4.32;;;3.90;;
13171;SDS011;6651;53.200;10.432;2023-04-24T11:12:05;4.95;;;3.90;;
13171;SDS011;6651;53.200;10.432;2023-04-24T11:20:02;4.50;;;3.67;;
13171;SDS011;6651;53.200;10.432;2023-04-24T11:22:30;3.67;;;3.30;;
13171;SDS011;6651;53.200;10.432;2023-04-24T11:24:59;3.05;;;2.75;;
13171;SDS011;6651;53.200;10.432;2023-04-24T11:27:29;3.28;;;2.83;;
13171;SDS011;6651;53.200;10.432;2023-04-24T11:35:01;3.63;;;3.00;;
13171;SDS011;6651;53.200;10.432;2023-04-24T11:37:49;3.45;;;3.05;;
13171;SDS011;6651;53.200;10.432;2023-04-24T11:40:17;2.97;;;2.67;;
13171;SDS011;6651;53.200;10.432;2023-04-24T11:42:50;3.90;;;2.75;;
13171;SDS011;6651;53.200;10.432;2023-04-24T11:45:18;3.63;;;2.75;;
13171;SDS011;6651;53.200;10.432;2023-04-24T11:47:45;4.07;;;2.60;;
13171;SDS011;6651;53.200;10.432;2023-04-24T11:50:12;3.22;;;2.92;;
13171;SDS011;6651;53.200;10.432;2023-04-24T11:52:39;4.38;;;3.25;;
13171;SDS011;6651;53.200;10.432;2023-04-24T11:55:47;3.70;;;3.40;;
13171;SDS011;6651;53.200;10.432;2023-04-24T11:57:58;4.68;;;3.30;;
13171;SDS011;6651;53.200;10.432;2023-04-24T12:00:26;3.92;;;3.22;;
13171;SDS011;6651;53.200;10.432;2023-04-24T12:03:03;3.28;;;2.97;;
13171;SDS011;6651;53.200;10.432;2023-04-24T12:05:29;5.10;;;3.38;;
13171;SDS011;6651;53.200;10.432;2023-04-24T12:07:59;3.40;;;3.10;;
13171;SDS011;6651;53.200;10.432;2023-04-24T12:10:26;4.15;;;3.45;;
13171;SDS011;6651;53.200;10.432;2023-04-24T12:12:53;3.72;;;3.40;;
13171;SDS011;6651;53.200;10.432;2023-04-24T12:15:19;4.82;;;3.30;;
13171;SDS011;6651;53.200;10.432;2023-04-24T12:17:46;3.58;;;3.25;;
13171;SDS011;6651;53.200;10.432;2023-04-24T12:20:12;3.10;;;2.83;;
13171;SDS011;6651;53.200;10.432;2023-04-24T12:22:57;3.00;;;2.72;;
13171;SDS011;6651;53.200;10.432;2023-04-24T12:25:24;3.20;;;2.80;;
13171;SDS011;6651;53.200;10.432;2023-04-24T12:30:29;4.18;;;3.13;;
13171;SDS011;6651;53.200;10.432;2023-04-24T12:32:57;3.00;;;2.75;;
13171;SDS011;6651;53.200;10.432;2023-04-24T12:35:24;3.20;;;2.90;;
13171;SDS011;6651;53.200;10.432;2023-04-24T12:37:50;3.55;;;2.70;;
13171;SDS011;6651;53.200;10.432;2023-04-24T12:40:17;3.97;;;2.88;;
13171;SDS011;6651;53.200;10.432;2023-04-24T12:45:09;3.10;;;2.90;;
13171;SDS011;6651;53.200;10.432;2023-04-24T12:47:37;3.58;;;3.28;;
13171;SDS011;6651;53.200;10.432;2023-04-24T12:50:03;2.95;;;2.50;;
13171;SDS011;6651;53.200;10.432;2023-04-24T12:52:29;2.70;;;2.50;;
13171;SDS011;6651;53.200;10.432;2023-04-24T12:54:56;2.67;;;2.47;;
13171;SDS011;6651;53.200;10.432;2023-04-24T12:57:23;2.63;;;2.42;;
13171;SDS011;6651;53.200;10.432;2023-04-24T12:59:49;2.50;;;2.30;;
13171;SDS011;6651;53.200;10.432;2023-04-24T13:02:15;3.13;;;2.75;;
13171;SDS011;6651;53.200;10.432;2023-04-24T13:04:45;2.40;;;2.03;;
13171;SDS011;6651;53.200;10.432;2023-04-24T13:07:12;2.28;;;1.90;;
13171;SDS011;6651;53.200;10.432;2023-04-24T13:09:39;3.15;;;2.00;;
13171;SDS011;6651;53.200;10.432;2023-04-24T13:12:05;3.25;;;2.25;;
13171;SDS011;6651;53.200;10.432;2023-04-24T13:14:31;2.75;;;2.08;;
13171;SDS011;6651;53.200;10.432;2023-04-24T13:16:57;2.20;;;2.10;;
13171;SDS011;6651;53.200;10.432;2023-04-24T13:19:24;2.03;;;1.92;;
13171;SDS011;6651;53.200;10.432;2023-04-24T13:21:54;2.15;;;2.05;;
13171;SDS011;6651;53.200;10.432;2023-04-24T13:24:20;2.10;;;2.00;;
13171;SDS011;6651;53.200;10.432;2023-04-24T13:26:49;2.55;;;1.90;;
13171;SDS011;6651;53.200;10.432;2023-04-24T13:29:15;2.10;;;1.90;;
13171;SDS011;6651;53.200;10.432;2023-04-24T13:31:41;1.90;;;1.80;;
13171;SDS011;6651;53.200;10.432;2023-04-24T13:34:07;2.42;;;2.10;;
13171;SDS011;6651;53.200;10.432;2023-04-24T13:36:33;2.13;;;1.88;;
13171;SDS011;6651;53.200;10.432;2023-04-24T13:39:00;2.13;;;1.98;;
13171;SDS011;6651;53.200;10.432;2023-04-24T13:41:26;1.98;;;1.88;;
13171;SDS011;6651;53.200;10.432;2023-04-24T13:43:52;3.08;;;2.20;;
13171;SDS011;6651;53.200;10.432;2023-04-24T13:46:18;1.85;;;1.75;;
13171;SDS011;6651;53.200;10.432;2023-04-24T13:48:44;2.28;;;2.17;;
13171;SDS011;6651;53.200;10.432;2023-04-24T13:51:10;3.50;;;2.10;;
13171;SDS011;6651;53.200;10.432;2023-04-24T13:53:36;1.88;;;1.77;;
13171;SDS011;6651;53.200;10.432;2023-04-24T13:56:03;1.85;;;1.75;;
13171;SDS011;6651;53.200;10.432;2023-04-24T13:58:30;2.30;;;1.80;;
13171;SDS011;6651;53.200;10.432;2023-04-24T14:00:57;2.08;;;1.90;;
13171;SDS011;6651;53.200;10.432;2023-04-24T14:03:23;2.10;;;2.00;;
13171;SDS011;6651;53.200;10.432;2023-04-24T14:05:49;1.77;;;1.67;;
13171;SDS011;6651;53.200;10.432;2023-04-24T14:08:15;2.58;;;2.00;;
13171;SDS011;6651;53.200;10.432;2023-04-24T14:10:42;4.22;;;2.08;;
13171;SDS011;6651;53.200;10.432;2023-04-24T14:13:08;2.47;;;2.00;;
13171;SDS011;6651;53.200;10.432;2023-04-24T14:15:37;2.10;;;2.00;;
13171;SDS011;6651;53.200;10.432;2023-04-24T14:18:03;2.50;;;1.90;;
13171;SDS011;6651;53.200;10.432;2023-04-24T14:20:29;2.22;;;2.10;;
13171;SDS011;6651;53.200;10.432;2023-04-24T14:22:56;2.58;;;2.10;;
13171;SDS011;6651;53.200;10.432;2023-04-24T14:25:24;2.65;;;2.28;;
13171;SDS011;6651;53.200;10.432;2023-04-24T14:27:50;2.25;;;2.05;;
13171;SDS011;6651;53.200;10.432;2023-04-24T14:30:16;3.13;;;1.92;;
13171;SDS011;6651;53.200;10.432;2023-04-24T14:32:42;2.30;;;2.10;;
13171;SDS011;6651;53.200;10.432;2023-04-24T14:35:08;2.20;;;2.00;;
13171;SDS011;6651;53.200;10.432;2023-04-24T14:37:34;3.10;;;2.20;;
13171;SDS011;6651;53.200;10.432;2023-04-24T14:40:01;2.47;;;1.90;;
13171;SDS011;6651;53.200;10.432;2023-04-24T14:42:28;1.90;;;1.80;;
13171;SDS011;6651;53.200;10.432;2023-04-24T14:44:54;1.40;;;1.40;;
13171;SDS011;6651;53.200;10.432;2023-04-24T14:47:20;1.33;;;1.33;;
13171;SDS011;6651;53.200;10.432;2023-04-24T14:49:49;1.13;;;1.10;;
13171;SDS011;6651;53.200;10.432;2023-04-24T14:52:15;1.00;;;1.00;;
13171;SDS011;6651;53.200;10.432;2023-04-24T14:54:41;1.08;;;1.00;;
13171;SDS011;6651;53.200;10.432;2023-04-24T14:57:07;0.43;;;0.43;;
13171;SDS011;6651;53.200;10.432;2023-04-24T14:59:33;0.90;;;0.90;;
13171;SDS011;6651;53.200;10.432;2023-04-24T15:02:00;0.80;;;0.80;;
13171;SDS011;6651;53.200;10.432;2023-04-24T15:04:26;1.77;;;1.33;;